createdAt,value
2022-08-16T02:00:49.352Z,4.10
2022-08-16T02:01:10.078Z,3.70
2022-08-16T02:01:31.903Z,4.10
2022-08-16T02:02:00.372Z,4.60
2022-08-16T02:02:26.533Z,4.70
2022-08-16T02:02:33.459Z,3.50
2022-08-16T02:02:54.061Z,4.50
2022-08-16T02:03:14.620Z,5.00
2022-08-16T02:03:35.832Z,4.00
2022-08-16T02:04:10.277Z,4.20
2022-08-16T02:04:48.816Z,4.20
2022-08-16T02:04:54.372Z,4.00
2022-08-16T02:05:01.847Z,4.10
2022-08-16T02:05:23.631Z,5.40
2022-08-16T02:05:46.729Z,4.80
2022-08-16T02:06:04.742Z,4.00
2022-08-16T02:06:33.840Z,3.90
2022-08-16T02:06:46.699Z,3.80
2022-08-16T02:07:07.644Z,4.40
2022-08-16T02:07:28.042Z,3.60
2022-08-16T02:07:52.133Z,3.80
2022-08-16T02:08:33.933Z,3.10
2022-08-16T02:08:34.476Z,3.90
2022-08-16T02:08:55.060Z,4.40
2022-08-16T02:09:17.838Z,4.40
2022-08-16T02:09:38.729Z,3.90
2022-08-16T02:09:59.842Z,4.50
2022-08-16T02:10:22.835Z,5.10
2022-08-16T02:10:46.424Z,5.10
2022-08-16T02:11:07.001Z,3.70
2022-08-16T02:11:27.776Z,5.00
2022-08-16T02:11:52.981Z,5.00
2022-08-16T02:12:45.839Z,4.90
2022-08-16T02:12:49.380Z,4.60
2022-08-16T02:12:55.709Z,4.30
2022-08-16T02:13:09.799Z,5.20
2022-08-16T02:13:32.887Z,4.60
2022-08-16T02:13:54.757Z,4.20
2022-08-16T02:14:17.937Z,3.90
2022-08-16T02:14:34.117Z,4.50
2022-08-16T02:14:54.696Z,4.20
2022-08-16T02:15:15.092Z,3.20
2022-08-16T02:15:42.608Z,3.40
2022-08-16T02:15:56.747Z,5.50
2022-08-16T02:16:18.554Z,3.70
2022-08-16T02:16:39.462Z,4.40
2022-08-16T02:17:01.284Z,3.80
2022-08-16T02:17:22.953Z,3.60
2022-08-16T02:17:43.727Z,3.50
2022-08-16T02:18:05.559Z,3.70
2022-08-16T02:18:26.140Z,4.10
2022-08-16T02:18:46.724Z,3.90
2022-08-16T02:19:16.428Z,3.70
2022-08-16T02:19:58.745Z,4.40
2022-08-16T02:19:58.764Z,4.40
2022-08-16T02:20:11.452Z,4.10
2022-08-16T02:20:32.423Z,5.10
2022-08-16T02:20:53.538Z,4.90
2022-08-16T02:21:14.265Z,4.70
2022-08-16T02:21:36.161Z,4.90
2022-08-16T02:22:08.263Z,4.30
2022-08-16T02:22:33.551Z,3.50
2022-08-16T02:22:37.556Z,3.80
2022-08-16T02:22:58.136Z,4.20
2022-08-16T02:23:20.140Z,4.20
2022-08-16T02:23:40.871Z,4.30
2022-08-16T02:24:01.263Z,3.90
2022-08-16T02:24:31.987Z,3.90
2022-08-16T02:24:46.007Z,3.60
2022-08-16T02:25:06.699Z,3.50
2022-08-16T02:25:51.922Z,4.50
2022-08-16T02:25:52.614Z,3.50
2022-08-16T02:26:16.977Z,4.40
2022-08-16T02:26:34.293Z,5.20
2022-08-16T02:26:55.026Z,4.60
2022-08-16T02:27:16.032Z,4.40
2022-08-16T02:27:36.615Z,3.80
2022-08-16T02:27:57.192Z,3.90
2022-08-16T02:28:20.930Z,3.30
2022-08-16T02:28:46.985Z,3.10
2022-08-16T02:29:07.797Z,3.60
2022-08-16T02:29:32.002Z,4.00
2022-08-16T02:29:52.790Z,3.00
2022-08-16T02:30:37.197Z,3.10
2022-08-16T02:30:37.452Z,3.50
2022-08-16T02:30:54.007Z,2.90
2022-08-16T02:31:14.400Z,3.40
2022-08-16T02:32:03.200Z,3.30
2022-08-16T02:32:04.340Z,3.60
2022-08-16T02:32:49.204Z,3.40
2022-08-16T02:32:50.598Z,3.70
2022-08-16T02:32:56.612Z,3.80
2022-08-16T02:33:17.570Z,3.50
2022-08-16T02:33:44.035Z,4.20
2022-08-16T02:33:59.291Z,3.70
2022-08-16T02:34:19.697Z,3.70
2022-08-16T02:34:41.010Z,3.30
2022-08-16T02:35:01.865Z,3.30
2022-08-16T02:35:23.301Z,3.80
2022-08-16T02:35:54.322Z,3.80
2022-08-16T02:36:03.232Z,4.00
2022-08-16T02:36:47.987Z,3.80
2022-08-16T02:36:50.650Z,4.40
2022-08-16T02:37:05.836Z,3.90
2022-08-16T02:37:51.512Z,3.00
2022-08-16T02:37:52.195Z,3.10
2022-08-16T02:38:09.005Z,4.00
2022-08-16T02:38:31.560Z,3.70
2022-08-16T02:38:52.700Z,3.60
2022-08-16T02:39:14.843Z,3.70
2022-08-16T02:39:35.592Z,3.50
2022-08-16T02:39:55.963Z,4.00
2022-08-16T02:40:16.588Z,3.90
2022-08-16T02:40:37.317Z,3.00
2022-08-16T02:40:57.958Z,3.00
2022-08-16T02:41:19.664Z,4.30
2022-08-16T02:41:40.557Z,5.00
2022-08-16T02:42:01.401Z,3.90
2022-08-16T02:42:22.805Z,3.60
2022-08-16T02:42:43.389Z,3.50
2022-08-16T02:43:04.879Z,3.80
2022-08-16T02:43:26.831Z,3.80
2022-08-16T02:43:48.048Z,3.50
2022-08-16T02:44:08.441Z,3.70
2022-08-16T02:44:29.592Z,3.90
2022-08-16T02:44:50.168Z,4.40
2022-08-16T02:45:10.563Z,3.50
2022-08-16T02:45:30.952Z,2.60
2022-08-16T02:45:51.354Z,4.10
2022-08-16T02:46:11.930Z,4.10
2022-08-16T02:46:33.618Z,3.50
2022-08-16T02:46:54.388Z,4.10
2022-08-16T02:47:25.297Z,3.70
2022-08-16T02:48:00.243Z,2.90
2022-08-16T02:48:01.317Z,4.20
2022-08-16T02:48:29.395Z,4.00
2022-08-16T02:48:37.892Z,4.00
2022-08-16T02:49:00.241Z,3.20
2022-08-16T02:49:22.234Z,5.40
2022-08-16T02:50:53.510Z,4.40
2022-08-16T02:50:53.622Z,3.40
2022-08-16T02:50:54.728Z,4.20
2022-08-16T02:51:06.797Z,3.40
2022-08-16T02:51:11.001Z,3.80
2022-08-16T02:51:24.661Z,3.20
2022-08-16T02:51:45.244Z,4.00
2022-08-16T02:52:07.035Z,3.80
2022-08-16T02:52:29.739Z,4.00
2022-08-16T02:52:53.145Z,4.70
2022-08-16T02:53:13.731Z,4.00
2022-08-16T02:53:38.641Z,3.60
2022-08-16T02:54:00.815Z,4.00
2022-08-16T02:54:21.399Z,4.00
2022-08-16T02:54:41.787Z,3.70
2022-08-16T02:55:02.185Z,3.00
2022-08-16T02:55:41.289Z,3.20
2022-08-16T02:55:45.052Z,3.60
2022-08-16T02:56:05.629Z,3.90
2022-08-16T02:56:26.032Z,4.30
2022-08-16T02:56:47.833Z,3.60
2022-08-16T02:57:06.831Z,3.00
2022-08-16T02:57:28.851Z,3.20
2022-08-16T02:57:54.516Z,3.60
2022-08-16T02:58:09.679Z,3.50
2022-08-16T02:58:30.265Z,4.10
2022-08-16T02:58:51.218Z,3.30
2022-08-16T02:59:14.559Z,3.10
2022-08-16T02:59:39.805Z,3.30
2022-08-16T02:59:55.623Z,2.80
2022-08-16T03:00:31.828Z,3.00
2022-08-16T03:00:36.625Z,4.20
2022-08-16T03:00:58.149Z,3.70
2022-08-16T03:01:24.890Z,3.20
2022-08-16T03:01:39.225Z,4.40
2022-08-16T03:02:00.148Z,4.60
2022-08-16T03:02:20.483Z,3.20
2022-08-16T03:02:40.888Z,3.60
2022-08-16T03:03:01.482Z,3.80
2022-08-16T03:03:24.390Z,2.90
2022-08-16T03:04:30.216Z,3.20
2022-08-16T03:04:39.614Z,3.50
2022-08-16T03:04:39.998Z,3.00
2022-08-16T03:04:52.163Z,3.70
2022-08-16T03:05:06.618Z,3.90
2022-08-16T03:05:30.936Z,3.90
2022-08-16T03:05:49.933Z,3.90
2022-08-16T03:06:42.107Z,4.00
2022-08-16T03:06:42.285Z,3.60
2022-08-16T03:06:49.214Z,3.10
2022-08-16T03:07:11.021Z,3.80
2022-08-16T03:07:37.079Z,3.40
2022-08-16T03:07:51.822Z,3.40
2022-08-16T03:08:31.012Z,4.40
2022-08-16T03:08:52.421Z,4.00
2022-08-16T03:08:53.825Z,3.80
2022-08-16T03:09:14.978Z,3.60
2022-08-16T03:09:34.787Z,3.50
2022-08-16T03:09:55.375Z,3.30
2022-08-16T03:10:15.775Z,4.00
2022-08-16T03:10:36.356Z,4.20
2022-08-16T03:10:59.657Z,4.10
2022-08-16T03:11:21.525Z,4.60
2022-08-16T03:11:42.437Z,3.50
2022-08-16T03:12:03.018Z,3.20
2022-08-16T03:12:30.461Z,3.80
2022-08-16T03:12:56.097Z,3.10
2022-08-16T03:13:04.501Z,3.30
2022-08-16T03:13:24.834Z,3.40
2022-08-16T03:13:45.420Z,3.80
2022-08-16T03:14:08.293Z,3.50
2022-08-16T03:14:29.035Z,3.30
2022-08-16T03:14:49.620Z,3.10
2022-08-16T03:15:10.202Z,3.40
2022-08-16T03:15:30.590Z,3.40
2022-08-16T03:15:51.203Z,4.00
2022-08-16T03:16:33.038Z,3.40
2022-08-16T03:16:37.792Z,4.10
2022-08-16T03:16:59.852Z,3.80
2022-08-16T03:17:12.993Z,3.70
2022-08-16T03:17:33.686Z,3.60
2022-08-16T03:17:54.402Z,3.50
2022-08-16T03:18:34.220Z,3.80
2022-08-16T03:18:40.585Z,4.00
2022-08-16T03:18:55.783Z,3.20
2022-08-16T03:19:16.389Z,3.30
2022-08-16T03:19:48.196Z,3.10
2022-08-16T03:19:59.931Z,3.10
2022-08-16T03:20:18.307Z,3.30
2022-08-16T03:20:38.914Z,3.30
2022-08-16T03:20:59.492Z,3.70
2022-08-16T03:21:20.076Z,3.90
2022-08-16T03:21:43.797Z,5.10
2022-08-16T03:22:04.385Z,5.40
2022-08-16T03:22:28.677Z,3.40
2022-08-16T03:22:49.811Z,3.60
2022-08-16T03:23:10.389Z,3.70
2022-08-16T03:23:35.930Z,3.70
2022-08-16T03:23:56.638Z,3.40
2022-08-16T03:24:28.130Z,3.20
2022-08-16T03:24:37.642Z,4.40
2022-08-16T03:24:58.330Z,4.00
2022-08-16T03:25:18.996Z,3.80
2022-08-16T03:25:43.080Z,2.90
2022-08-16T03:26:00.223Z,3.10
2022-08-16T03:26:20.810Z,3.30
2022-08-16T03:26:41.395Z,3.80
2022-08-16T03:27:02.942Z,4.20
2022-08-16T03:27:23.664Z,4.00
2022-08-16T03:27:44.702Z,3.40
2022-08-16T03:28:07.654Z,3.60
2022-08-16T03:28:28.206Z,3.30
2022-08-16T03:28:48.603Z,3.30
2022-08-16T03:29:09.339Z,3.40
2022-08-16T03:29:30.541Z,3.00
2022-08-16T03:29:54.923Z,3.00
2022-08-16T03:30:17.591Z,2.80
2022-08-16T03:30:38.558Z,3.30
2022-08-16T03:30:59.136Z,3.10
2022-08-16T03:31:21.341Z,3.50
2022-08-16T03:31:41.940Z,4.00
2022-08-16T03:32:02.322Z,3.30
2022-08-16T03:32:22.903Z,2.80
2022-08-16T03:32:47.209Z,3.60
2022-08-16T03:33:08.211Z,2.70
2022-08-16T03:33:29.941Z,3.60
2022-08-16T03:33:52.133Z,3.40
2022-08-16T03:34:13.141Z,3.90
2022-08-16T03:34:34.466Z,3.50
2022-08-16T03:34:55.948Z,2.60
2022-08-16T03:35:17.515Z,3.30
2022-08-16T03:35:40.268Z,3.40
2022-08-16T03:36:30.960Z,3.30
2022-08-16T03:36:32.594Z,2.90
2022-08-16T03:36:41.705Z,3.50
2022-08-16T03:37:02.718Z,3.90
2022-08-16T03:37:23.294Z,3.90
2022-08-16T03:38:02.084Z,3.30
2022-08-16T03:38:04.383Z,3.70
2022-08-16T03:38:33.897Z,3.40
2022-08-16T03:38:45.119Z,3.90
2022-08-16T03:39:05.698Z,3.70
2022-08-16T03:39:26.139Z,2.80
2022-08-16T03:39:47.741Z,3.80
2022-08-16T03:40:08.349Z,4.30
2022-08-16T03:40:32.989Z,3.80
2022-08-16T03:40:49.122Z,3.40
2022-08-16T03:41:24.265Z,3.40
2022-08-16T03:41:49.811Z,3.60
2022-08-16T03:41:51.307Z,4.00
2022-08-16T03:42:10.731Z,4.80
2022-08-16T03:42:31.313Z,4.40
2022-08-16T03:43:18.619Z,5.40
2022-08-16T03:43:20.743Z,5.80
2022-08-16T03:43:51.706Z,5.20
2022-08-16T03:43:53.713Z,5.60
2022-08-16T03:44:44.241Z,5.00
2022-08-16T03:44:44.877Z,5.00
2022-08-16T03:45:03.430Z,4.60
2022-08-16T03:45:15.617Z,5.30
2022-08-16T03:45:36.199Z,5.60
2022-08-16T03:45:56.588Z,6.40
2022-08-16T03:46:47.506Z,6.30
2022-08-16T03:46:48.091Z,4.70
2022-08-16T03:46:58.228Z,4.50
2022-08-16T03:47:19.718Z,6.10
2022-08-16T03:47:40.438Z,4.40
2022-08-16T03:48:00.833Z,4.40
2022-08-16T03:48:21.425Z,3.90
2022-08-16T03:48:41.849Z,4.30
2022-08-16T03:49:02.433Z,5.30
2022-08-16T03:49:23.018Z,5.50
2022-08-16T03:49:43.427Z,3.80
2022-08-16T03:50:03.823Z,4.10
2022-08-16T03:50:25.832Z,4.50
2022-08-16T03:50:59.945Z,4.40
2022-08-16T03:51:07.725Z,4.20
2022-08-16T03:51:29.132Z,3.60
2022-08-16T03:51:52.016Z,3.60
2022-08-16T03:52:12.725Z,3.20
2022-08-16T03:52:33.488Z,3.60
2022-08-16T03:52:59.650Z,3.90
2022-08-16T03:53:14.286Z,3.80
2022-08-16T03:53:37.673Z,4.80
2022-08-16T03:54:01.281Z,4.70
2022-08-16T03:54:22.000Z,4.60
2022-08-16T03:54:53.515Z,3.90
2022-08-16T03:55:04.399Z,3.80
2022-08-16T03:55:24.792Z,3.70
2022-08-16T03:55:45.914Z,3.60
2022-08-16T03:56:05.597Z,4.30
2022-08-16T03:56:27.015Z,4.90
2022-08-16T03:56:57.305Z,5.40
2022-08-16T03:57:11.358Z,4.80
2022-08-16T03:57:31.773Z,4.10
2022-08-16T03:57:52.424Z,4.20
2022-08-16T03:58:13.064Z,5.00
2022-08-16T03:58:33.967Z,4.30
2022-08-16T03:58:57.446Z,4.60
2022-08-16T03:59:18.614Z,4.20
2022-08-16T03:59:39.008Z,4.90
2022-08-16T03:59:59.038Z,3.90
2022-08-16T04:00:35.745Z,4.40
2022-08-16T04:00:41.500Z,4.70
2022-08-16T04:01:02.092Z,4.40
2022-08-16T04:01:23.356Z,3.60
2022-08-16T04:01:43.938Z,4.10
2022-08-16T04:02:10.673Z,4.30
2022-08-16T04:02:31.588Z,3.60
2022-08-16T04:02:45.426Z,3.30
2022-08-16T04:03:06.004Z,3.30
2022-08-16T04:03:26.398Z,3.50
2022-08-16T04:03:50.493Z,5.00
2022-08-16T04:04:11.072Z,4.20
2022-08-16T04:04:33.130Z,4.70
2022-08-16T04:04:54.391Z,3.50
2022-08-16T04:05:16.571Z,3.30
2022-08-16T04:05:37.757Z,3.70
2022-08-16T04:05:58.288Z,3.70
2022-08-16T04:06:18.920Z,3.60
2022-08-16T04:06:39.509Z,3.60
2022-08-16T04:06:59.899Z,3.90
2022-08-16T04:07:20.496Z,4.40
2022-08-16T04:07:41.078Z,4.00
2022-08-16T04:08:01.664Z,4.30
2022-08-16T04:08:22.788Z,4.70
2022-08-16T04:08:45.206Z,4.30
2022-08-16T04:09:05.787Z,4.50
2022-08-16T04:09:26.205Z,4.00
2022-08-16T04:09:46.891Z,3.80
2022-08-16T04:10:35.573Z,4.00
2022-08-16T04:10:37.011Z,4.70
2022-08-16T04:10:48.268Z,4.90
2022-08-16T04:11:12.316Z,3.80
2022-08-16T04:11:37.764Z,4.70
2022-08-16T04:11:58.327Z,4.60
2022-08-16T04:12:53.200Z,3.50
2022-08-16T04:12:54.009Z,3.90
2022-08-16T04:13:04.083Z,4.20
2022-08-16T04:13:59.926Z,4.50
2022-08-16T04:14:00.469Z,4.20
2022-08-16T04:14:30.772Z,4.30
2022-08-16T04:14:32.951Z,4.90
2022-08-16T04:14:46.604Z,4.20
2022-08-16T04:15:02.371Z,4.50
2022-08-16T04:15:23.120Z,5.40
2022-08-16T04:15:46.830Z,3.40
2022-08-16T04:16:07.240Z,4.30
2022-08-16T04:16:28.417Z,4.10
2022-08-16T04:16:48.026Z,3.70
2022-08-16T04:17:08.424Z,3.90
2022-08-16T04:17:28.998Z,3.30
2022-08-16T04:17:49.579Z,3.70
2022-08-16T04:18:10.156Z,4.70
2022-08-16T04:18:30.552Z,4.60
2022-08-16T04:18:51.134Z,5.00
2022-08-16T04:19:12.821Z,5.00
2022-08-16T04:19:33.406Z,6.00
2022-08-16T04:19:55.000Z,5.80
2022-08-16T04:20:29.475Z,5.70
2022-08-16T04:20:39.261Z,5.70
2022-08-16T04:21:00.844Z,5.00
2022-08-16T04:21:29.112Z,4.30
2022-08-16T04:21:45.963Z,4.70
2022-08-16T04:22:02.239Z,3.70
2022-08-16T04:22:22.646Z,4.80
2022-08-16T04:22:43.071Z,4.50
2022-08-16T04:23:03.451Z,4.80
2022-08-16T04:23:26.783Z,5.00
2022-08-16T04:23:47.845Z,4.20
2022-08-16T04:24:08.451Z,4.20
2022-08-16T04:24:29.970Z,5.10
2022-08-16T04:24:54.096Z,4.60
2022-08-16T04:25:10.580Z,4.70
2022-08-16T04:25:32.808Z,4.50
2022-08-16T04:25:53.198Z,4.10
2022-08-16T04:26:16.673Z,5.10
2022-08-16T04:26:37.590Z,5.40
2022-08-16T04:26:58.000Z,4.10
2022-08-16T04:27:18.583Z,4.40
2022-08-16T04:27:39.163Z,4.20
2022-08-16T04:28:53.233Z,4.60
2022-08-16T04:28:54.319Z,3.80
2022-08-16T04:28:55.798Z,3.80
2022-08-16T04:29:16.924Z,3.40
2022-08-16T04:29:23.531Z,3.80
2022-08-16T04:29:46.532Z,3.00
2022-08-16T04:30:10.947Z,2.90
2022-08-16T04:30:34.825Z,3.80
2022-08-16T04:30:55.679Z,3.50
2022-08-16T04:31:16.074Z,4.70
2022-08-16T04:31:36.766Z,5.60
2022-08-16T04:31:57.774Z,5.50
2022-08-16T04:32:19.766Z,4.80
2022-08-16T04:32:39.207Z,3.70
2022-08-16T04:33:00.775Z,3.10
2022-08-16T04:33:27.193Z,3.00
2022-08-16T04:33:51.080Z,4.00
2022-08-16T04:34:01.978Z,4.80
2022-08-16T04:34:24.730Z,3.90
2022-08-16T04:34:45.493Z,3.70
2022-08-16T04:35:09.368Z,3.70
2022-08-16T04:35:26.802Z,4.00
2022-08-16T04:35:49.403Z,4.30
2022-08-16T04:36:07.590Z,4.60
2022-08-16T04:36:28.176Z,5.80
2022-08-16T04:36:48.807Z,4.50
2022-08-16T04:37:09.542Z,3.70
2022-08-16T04:37:30.120Z,4.50
2022-08-16T04:37:53.931Z,3.80
2022-08-16T04:38:20.919Z,3.30
2022-08-16T04:38:35.139Z,3.40
2022-08-16T04:38:55.721Z,3.80
2022-08-16T04:39:16.114Z,4.40
2022-08-16T04:39:47.218Z,4.80
2022-08-16T04:39:57.555Z,4.40
2022-08-16T04:40:20.579Z,4.20
2022-08-16T04:40:42.347Z,4.30
2022-08-16T04:41:02.914Z,3.90
2022-08-16T04:41:32.606Z,4.10
2022-08-16T04:41:44.305Z,3.60
2022-08-16T04:42:11.333Z,4.00
2022-08-16T04:42:26.152Z,4.20
2022-08-16T04:42:47.146Z,4.40
2022-08-16T04:43:07.713Z,5.20
2022-08-16T04:43:28.292Z,4.10
2022-08-16T04:43:49.854Z,5.00
2022-08-16T04:44:33.017Z,5.70
2022-08-16T04:44:52.647Z,4.30
2022-08-16T04:44:53.983Z,4.00
2022-08-16T04:45:15.812Z,3.60
2022-08-16T04:45:38.375Z,4.30
2022-08-16T04:46:03.208Z,4.10
2022-08-16T04:47:00.699Z,6.90
2022-08-16T04:47:01.344Z,4.90
2022-08-16T04:47:24.276Z,3.40
2022-08-16T04:47:32.958Z,3.90
2022-08-16T04:47:46.350Z,3.60
2022-08-16T04:48:06.738Z,4.60
2022-08-16T04:48:28.416Z,4.50
2022-08-16T04:48:47.780Z,4.20
2022-08-16T04:49:10.645Z,5.30
2022-08-16T04:49:45.569Z,4.70
2022-08-16T04:49:52.783Z,3.80
2022-08-16T04:50:14.525Z,4.30
2022-08-16T04:50:35.155Z,4.30
2022-08-16T04:50:55.977Z,4.30
2022-08-16T04:51:16.568Z,4.50
2022-08-16T04:51:37.150Z,4.70
2022-08-16T04:51:59.624Z,4.50
2022-08-16T04:52:32.752Z,4.30
2022-08-16T04:52:41.197Z,3.60
2022-08-16T04:53:04.743Z,4.20
2022-08-16T04:53:27.451Z,3.60
2022-08-16T04:53:48.305Z,4.60
2022-08-16T04:54:09.983Z,3.90
2022-08-16T04:54:30.376Z,4.40
2022-08-16T04:54:50.981Z,4.00
2022-08-16T04:55:11.842Z,4.20
2022-08-16T04:55:38.201Z,4.70
2022-08-16T04:55:53.154Z,4.30
2022-08-16T04:56:14.162Z,3.80
2022-08-16T04:56:34.555Z,4.60
2022-08-16T04:56:54.964Z,5.50
2022-08-16T04:57:17.526Z,4.20
2022-08-16T04:57:38.108Z,4.80
2022-08-16T04:57:59.282Z,5.60
2022-08-16T04:58:44.229Z,5.00
2022-08-16T04:58:46.141Z,4.70
2022-08-16T04:59:00.676Z,5.90
2022-08-16T04:59:21.941Z,5.20
2022-08-16T04:59:42.775Z,4.90
2022-08-16T05:00:32.001Z,4.50
2022-08-16T05:00:32.136Z,5.20
2022-08-16T05:00:44.181Z,4.30
2022-08-16T05:01:04.864Z,4.40
2022-08-16T05:01:58.473Z,4.30
2022-08-16T05:01:59.240Z,4.20
2022-08-16T05:02:21.501Z,4.60
2022-08-16T05:02:42.626Z,4.70
2022-08-16T05:02:56.415Z,3.90
2022-08-16T05:03:10.677Z,3.40
2022-08-16T05:03:32.609Z,3.70
2022-08-16T05:04:00.583Z,4.10
2022-08-16T05:04:19.242Z,4.80
2022-08-16T05:04:33.981Z,4.10
2022-08-16T05:04:54.432Z,5.50
2022-08-16T05:05:17.121Z,5.40
2022-08-16T05:05:45.129Z,5.20
2022-08-16T05:06:02.299Z,4.20
2022-08-16T05:06:19.272Z,5.40
2022-08-16T05:06:45.459Z,5.70
2022-08-16T05:07:00.080Z,5.50
2022-08-16T05:07:20.740Z,3.70
2022-08-16T05:07:57.896Z,4.10
2022-08-16T05:08:28.077Z,4.70
2022-08-16T05:08:29.232Z,4.50
2022-08-16T05:08:47.340Z,4.50
2022-08-16T05:09:09.109Z,5.10
2022-08-16T05:09:29.959Z,4.50
2022-08-16T05:09:50.543Z,4.30
2022-08-16T05:10:19.487Z,4.20
2022-08-16T05:10:32.281Z,4.40
2022-08-16T05:10:52.678Z,3.70
2022-08-16T05:11:13.070Z,5.90
2022-08-16T05:11:33.652Z,6.40
2022-08-16T05:11:57.622Z,5.10
2022-08-16T05:12:22.255Z,4.30
2022-08-16T05:12:38.747Z,4.70
2022-08-16T05:12:59.147Z,4.20
2022-08-16T05:13:19.540Z,4.00
2022-08-16T05:13:42.381Z,4.30
2022-08-16T05:14:06.997Z,5.30
2022-08-16T05:14:46.050Z,4.40
2022-08-16T05:15:02.588Z,3.60
2022-08-16T05:15:08.832Z,4.20
2022-08-16T05:15:29.402Z,4.80
2022-08-16T05:15:53.568Z,2.90
2022-08-16T05:16:20.195Z,3.50
2022-08-16T05:16:35.588Z,3.80
2022-08-16T05:16:56.165Z,3.60
2022-08-16T05:17:16.748Z,4.60
2022-08-16T05:17:37.328Z,4.20
2022-08-16T05:17:59.740Z,3.80
2022-08-16T05:18:23.246Z,4.00
2022-08-16T05:18:39.398Z,4.60
2022-08-16T05:19:03.478Z,4.30
2022-08-16T05:19:23.875Z,4.60
2022-08-16T05:19:58.103Z,4.40
2022-08-16T05:20:39.066Z,3.50
2022-08-16T05:20:39.189Z,5.30
2022-08-16T05:21:01.242Z,4.90
2022-08-16T05:21:10.986Z,3.90
2022-08-16T05:21:38.205Z,4.90
2022-08-16T05:21:53.364Z,5.60
2022-08-16T05:22:17.936Z,4.50
2022-08-16T05:22:38.931Z,4.10
2022-08-16T05:22:59.512Z,4.10
2022-08-16T05:23:21.143Z,5.20
2022-08-16T05:23:44.342Z,4.70
2022-08-16T05:24:02.149Z,5.90
2022-08-16T05:24:26.748Z,5.30
2022-08-16T05:24:47.330Z,4.90
2022-08-16T05:25:09.093Z,4.90
2022-08-16T05:25:40.993Z,3.70
2022-08-16T05:25:50.309Z,4.30
2022-08-16T05:26:20.335Z,5.10
2022-08-16T05:26:34.416Z,4.70
2022-08-16T05:26:55.323Z,3.80
2022-08-16T05:27:17.327Z,4.50
2022-08-16T05:27:43.007Z,4.70
2022-08-16T05:27:58.313Z,4.80
2022-08-16T05:28:18.895Z,4.50
2022-08-16T05:28:39.484Z,5.00
2022-08-16T05:29:00.062Z,4.90
2022-08-16T05:29:24.970Z,4.70
2022-08-16T05:29:57.590Z,4.30
2022-08-16T05:30:05.136Z,4.40
2022-08-16T05:30:35.275Z,3.90
2022-08-16T05:30:45.944Z,3.80
2022-08-16T05:31:06.783Z,5.00
2022-08-16T05:31:29.369Z,5.10
2022-08-16T05:31:53.275Z,4.50
2022-08-16T05:32:32.381Z,4.20
2022-08-16T05:32:36.496Z,4.30
2022-08-16T05:32:55.134Z,5.60
2022-08-16T05:33:16.661Z,5.90
2022-08-16T05:33:38.751Z,4.10
2022-08-16T05:34:03.284Z,5.10
2022-08-16T05:34:24.821Z,4.90
2022-08-16T05:34:45.215Z,6.00
2022-08-16T05:35:06.434Z,6.20
2022-08-16T05:35:27.014Z,5.00
2022-08-16T05:35:55.585Z,5.60
2022-08-16T05:36:14.126Z,5.40
2022-08-16T05:36:34.324Z,4.90
2022-08-16T05:36:48.798Z,4.80
2022-08-16T05:37:14.676Z,5.20
2022-08-16T05:37:39.989Z,5.00
2022-08-16T05:37:57.128Z,5.10
2022-08-16T05:38:33.204Z,5.90
2022-08-16T05:38:39.461Z,5.70
2022-08-16T05:39:00.558Z,4.40
2022-08-16T05:39:22.868Z,5.10
2022-08-16T05:39:43.294Z,4.80
2022-08-16T05:40:06.062Z,4.90
2022-08-16T05:40:26.986Z,4.80
2022-08-16T05:40:59.793Z,5.00
2022-08-16T05:41:09.282Z,5.40
2022-08-16T05:41:30.577Z,6.40
2022-08-16T05:41:51.712Z,5.50
2022-08-16T05:42:12.521Z,5.40
2022-08-16T05:42:35.709Z,5.90
2022-08-16T05:42:56.671Z,6.00
2022-08-16T05:43:17.425Z,6.70
2022-08-16T05:43:43.470Z,6.50
2022-08-16T05:43:59.193Z,6.40
2022-08-16T05:44:23.877Z,6.30
2022-08-16T05:44:39.219Z,5.70
2022-08-16T05:44:59.614Z,5.80
2022-08-16T05:45:22.012Z,5.60
2022-08-16T05:45:43.881Z,7.00
2022-08-16T05:46:04.285Z,7.10
2022-08-16T05:46:29.900Z,7.10
2022-08-16T05:46:45.096Z,6.50
2022-08-16T05:47:05.688Z,7.00
2022-08-16T05:47:28.005Z,6.30
2022-08-16T05:48:00.025Z,7.20
2022-08-16T05:48:11.280Z,6.80
2022-08-16T05:48:33.133Z,5.90
2022-08-16T05:48:55.252Z,5.70
2022-08-16T05:49:13.936Z,7.00
2022-08-16T05:49:38.412Z,7.30
2022-08-16T05:49:54.931Z,6.90
2022-08-16T05:50:18.930Z,7.30
2022-08-16T05:50:41.556Z,6.80
2022-08-16T05:51:00.439Z,5.90
2022-08-16T05:51:38.332Z,6.50
2022-08-16T05:51:42.858Z,7.40
2022-08-16T05:52:03.257Z,7.10
2022-08-16T05:52:23.662Z,6.80
2022-08-16T05:52:48.683Z,6.60
2022-08-16T05:53:10.017Z,6.70
2022-08-16T05:53:30.616Z,7.90
2022-08-16T05:53:51.018Z,6.80
2022-08-16T05:54:13.975Z,7.60
2022-08-16T05:54:34.842Z,7.30
2022-08-16T05:55:01.097Z,7.50
2022-08-16T05:55:15.631Z,7.20
2022-08-16T05:55:40.844Z,7.00
2022-08-16T05:55:56.425Z,6.40
2022-08-16T05:56:19.532Z,6.70
2022-08-16T05:56:40.221Z,7.50
2022-08-16T05:57:03.426Z,7.10
2022-08-16T05:57:24.267Z,7.50
2022-08-16T05:57:44.848Z,6.00
2022-08-16T05:58:05.259Z,6.90
2022-08-16T05:58:32.919Z,7.50
2022-08-16T05:58:46.675Z,7.30
2022-08-16T05:59:07.247Z,7.20
2022-08-16T05:59:28.310Z,7.30
2022-08-16T05:59:50.743Z,6.50
2022-08-16T06:00:09.889Z,7.00
2022-08-16T06:00:30.659Z,6.90
2022-08-16T06:00:51.271Z,6.60
2022-08-16T06:01:12.052Z,7.30
2022-08-16T06:01:32.841Z,7.30
2022-08-16T06:01:53.082Z,7.50
2022-08-16T06:02:13.958Z,7.00
2022-08-16T06:02:34.542Z,6.30
2022-08-16T06:02:55.127Z,6.80
2022-08-16T06:03:15.711Z,7.70
2022-08-16T06:03:36.296Z,7.70
2022-08-16T06:03:57.077Z,8.40
2022-08-16T06:04:35.983Z,7.30
2022-08-16T06:04:42.235Z,6.50
2022-08-16T06:05:05.591Z,7.00
2022-08-16T06:05:26.173Z,6.70
2022-08-16T06:05:46.770Z,7.60
2022-08-16T06:06:08.487Z,7.40
2022-08-16T06:06:29.226Z,6.80
2022-08-16T06:06:55.680Z,8.30
2022-08-16T06:07:25.116Z,8.50
2022-08-16T06:07:31.941Z,8.40
2022-08-16T06:07:59.160Z,8.20
2022-08-16T06:08:31.708Z,7.80
2022-08-16T06:08:42.038Z,7.10
2022-08-16T06:08:52.197Z,7.70
2022-08-16T06:09:13.571Z,8.00
2022-08-16T06:09:43.598Z,7.70
2022-08-16T06:09:54.878Z,9.20
2022-08-16T06:10:32.483Z,7.70
2022-08-16T06:10:36.289Z,8.10
2022-08-16T06:11:09.869Z,9.00
2022-08-16T06:11:17.287Z,10.20
2022-08-16T06:11:39.491Z,9.20
2022-08-16T06:12:03.746Z,8.00
2022-08-16T06:12:27.302Z,8.30
2022-08-16T06:12:52.637Z,8.10
2022-08-16T06:13:09.640Z,9.00
2022-08-16T06:13:32.661Z,7.70
2022-08-16T06:13:55.309Z,9.20
2022-08-16T06:14:16.050Z,9.80
2022-08-16T06:14:37.432Z,10.10
2022-08-16T06:15:00.659Z,9.10
2022-08-16T06:15:21.241Z,7.80
2022-08-16T06:15:41.850Z,8.20
2022-08-16T06:16:02.429Z,8.30
2022-08-16T06:16:23.012Z,9.90
2022-08-16T06:16:51.019Z,8.90
2022-08-16T06:17:11.661Z,8.40
2022-08-16T06:17:41.739Z,8.60
2022-08-16T06:17:56.243Z,8.70
2022-08-16T06:18:16.824Z,9.00
2022-08-16T06:18:38.063Z,8.50
2022-08-16T06:18:58.640Z,9.30
2022-08-16T06:19:19.045Z,8.60
2022-08-16T06:19:44.098Z,8.30
2022-08-16T06:20:00.001Z,8.40
2022-08-16T06:20:24.407Z,7.90
2022-08-16T06:20:55.639Z,9.50
2022-08-16T06:21:01.439Z,9.50
2022-08-16T06:21:22.722Z,8.70
2022-08-16T06:21:44.521Z,9.40
2022-08-16T06:22:05.134Z,8.40
2022-08-16T06:22:38.923Z,8.90
2022-08-16T06:22:47.562Z,9.30
2022-08-16T06:23:17.104Z,10.20
2022-08-16T06:23:26.933Z,9.50
2022-08-16T06:23:47.346Z,10.90
2022-08-16T06:24:53.902Z,10.80
2022-08-16T06:24:54.189Z,9.10
2022-08-16T06:24:54.280Z,9.50
2022-08-16T06:25:08.994Z,9.60
2022-08-16T06:25:36.300Z,9.50
2022-08-16T06:25:53.051Z,8.80
2022-08-16T06:26:13.673Z,10.00
2022-08-16T06:26:37.430Z,9.80
2022-08-16T06:26:57.784Z,8.80
2022-08-16T06:27:18.897Z,10.50
2022-08-16T06:27:41.380Z,9.80
2022-08-16T06:28:01.786Z,8.50
2022-08-16T06:28:35.566Z,9.40
2022-08-16T06:28:42.595Z,9.00
2022-08-16T06:29:05.088Z,11.30
2022-08-16T06:29:28.302Z,11.10
2022-08-16T06:29:50.233Z,10.00
2022-08-16T06:30:10.936Z,8.80
2022-08-16T06:30:31.515Z,8.80
2022-08-16T06:30:52.101Z,8.80
2022-08-16T06:31:12.553Z,8.80
2022-08-16T06:31:33.093Z,9.50
2022-08-16T06:31:53.496Z,9.40
2022-08-16T06:32:27.336Z,9.90
2022-08-16T06:32:38.333Z,11.20
2022-08-16T06:32:54.934Z,11.20
2022-08-16T06:33:22.229Z,11.60
2022-08-16T06:33:40.345Z,10.10
2022-08-16T06:33:56.323Z,9.80
2022-08-16T06:34:53.212Z,9.80
2022-08-16T06:34:56.044Z,9.10
2022-08-16T06:35:02.151Z,10.30
2022-08-16T06:35:17.934Z,10.10
2022-08-16T06:35:40.596Z,10.90
2022-08-16T06:36:02.330Z,9.40
2022-08-16T06:36:22.930Z,9.70
2022-08-16T06:36:44.353Z,8.90
2022-08-16T06:37:09.172Z,9.70
2022-08-16T06:37:37.055Z,9.10
2022-08-16T06:37:51.471Z,10.30
2022-08-16T06:38:32.881Z,11.20
2022-08-16T06:38:33.615Z,8.60
2022-08-16T06:38:56.013Z,9.90
2022-08-16T06:39:12.337Z,10.40
2022-08-16T06:39:34.374Z,10.30
2022-08-16T06:39:55.102Z,9.20
2022-08-16T06:40:15.890Z,10.10
2022-08-16T06:40:36.681Z,9.80
2022-08-16T06:40:57.263Z,9.60